Accueil
METAR-TAF:

METAR-TAF

Aéroports :

Vanua Lava, Vanuatu

latitude: 13-51-06S, longitude: 167-32-13E, altitude: 2 m

Observation

Le bulletin a été fait il y a 2 heures et 10 minutes, à 00:00 UTC
Vent 5 kt de sud-est
Température 31°C
Humidité 66%
Pression 1012 hPa
Visibilité 10 km ou plus
Nuages fragmentés à une hauteur de 2000 ft

METAR: NVSC 210000Z 14005KT 9999 BKN020 31/24 Q1012 RMK NIL

Heure: 13:10 (02:10 UTC)

Prévision

Le bulletin a été fait il y a 3 heures et 50 minutes, à 22:20 UTC
Prévision valable du 21 à 00 UTC au 21 à 24 UTC
Vent 6 kt de est/sud-est
Visibilité 10 km ou plus
Nuages épars à une hauteur de 2200 ft
Probabilité 30%
entre IN et TE UTC
Visibilité: 9000 m
Nuages fragmentés à une hauteur de 1800 ft
faibles averses de pluie

TAF: NVSC 202220Z 2100/2124 11006KT 9999 SCT022 PROB30 INTER 2100/2106 9000 -SHRA BKN018

Observations et prévisions météorologiques de plus de 4000 aéroports (messages METAR et TAF).

Les stations disponibles sont représentées par des disques jaunes et rouges sur la carte.

Passer la souris dessus pour voir le nom de la station.

Cliquer dessus pour voir les observations et prévisions météorologiques.

Pour changer de carte: cliquez sur les boutons verts avec une croix noire pour zoomer, sur le bouton vert avec un tiret pour effectuer un zoom arrière, ou sur les flèches vertes pour les cartes adjacentes.


METAR-TAF: